Impacts METAR Board
IDs:

KCVG - Cincinnati Intl, KY, US

Updated at: 2000 UTC 16 Aug 2018
Potential Impact None Slight Moderate High
Time 16/08Z 16/09Z 16/10Z 16/11Z 16/12Z 16/13Z 16/14Z 16/15Z 16/16Z 16/17Z 16/18Z 16/19Z 16/20Z
Temp68 68 68 69 70 70 71 71 71 71 73 74 74
Dewpt68 68 67 68 69 69 70 70 70 70 71 71 73
Altim30.05 30.04 30.03 30.04 30.04 30.07 30.06 30.07 30.07 30.08 30.05 30.05 30.03
VIS1.5 7 9 4 8 4 7 5 2 1.5 7 10 6
CIG70 120 110 50 70 44 10 40 9 10 18 17 37
CoverOVCOVCOVCOVCOVCOVCOVCOVCOVCOVCOVCOVCOVC
FltCatIFRVFRVFRMVFRVFRMVFRMVFRMVFRIFRIFRMVFRMVFRVFR
WX+TSRA BR-RA-RA-RA BR---RA BR-RA-RA BR-RA BR-RA BR-RA-RA-RA BR
WDir200150170190190190190200200190190190170
WSpd9 4 8 10 12 9 11 12 11 10 11 11 8
WGst-- -- -- -- -- -- -- 21 -- -- -- 22 --
Raw hourly METARs
KCVG 160752Z 20009KT 1 1/2SM +TSRA BR SCT024CB BKN070 OVC110 20/20 A3005 RMK AO2 WSHFT 0654 SLP168 OCNL LTGIC S TS S MOV NE P0070 T02000200
KCVG 160852Z 15004KT 7SM -RA OVC120 20/20 A3004 RMK AO2 TSE17 SLP164 TS MOV NE P0011 60114 T02000200 50003
KCVG 160952Z 17008KT 9SM -RA FEW050 FEW090 OVC110 20/19 A3003 RMK AO2 SLP161 P0004 T02000194
KCVG 161052Z 19010KT 4SM -RA BR FEW034 BKN050 BKN070 OVC130 21/20 A3004 RMK AO2 SLP163 P0009 T02060200
KCVG 161152Z 19012KT 8SM SCT049 BKN070 OVC090 21/21 A3004 RMK AO2 RAE44 SLP165 SHRA SW-W P0014 60141 70183 T02110206 10211 20200 53001
KCVG 161252Z 19009KT 4SM -RA BR FEW009 SCT018 OVC044 21/21 A3007 RMK AO2 RAB1155 SLP173 P0036 T02110206
KCVG 161403Z 19011KT 7SM -RA BKN010 BKN043 OVC075 22/21 A3006 RMK AO2 P0001 T02170211
KCVG 161452Z 20012G21KT 5SM -RA BR SCT010 BKN040 OVC060 22/21 A3007 RMK AO2 SLP173 SCT V BKN P0004 60057 T02170211 51008
KCVG 161602Z 20011KT 2SM -RA BR BKN009 OVC014 22/21 A3007 RMK AO2 P0002 T02170211
KCVG 161652Z 19010KT 1 1/2SM -RA BR OVC010 22/21 A3008 RMK AO2 SFC VIS 2 SLP176 P0006 T02170211
KCVG 161756Z 19011KT 7SM -RA SCT010 BKN018 OVC055 23/22 A3005 RMK AO2 P0000 T02280217
KCVG 161852Z 19011G22KT 10SM -RA OVC017 23/22 A3005 RMK AO2 RAE00B50 SLP166 CIG 013V021 P0000 T02330217
KCVG 162003Z 17008KT 6SM -RA BR SCT022 BKN037 OVC060 23/23 A3003 RMK AO2 VIS LWR NW P0000 T02330228



Page loaded:  20:19 UTC  |   01:19 PM Pacific  |   02:19 PM Mountain  |   03:19 PM Central  |   04:19 PM Eastern

 

ADVISORIES

FORECASTS

FORECASTS

OBSERVATIONS

USER TOOLS

ABOUT US